createdAt,value
2018-10-18T00:00:20.405Z,54.55
2018-10-18T00:02:49.094Z,54.48
2018-10-18T00:05:18.122Z,57.17
2018-10-18T00:07:46.813Z,54.03
2018-10-18T00:10:15.493Z,55.95
2018-10-18T00:12:44.193Z,55.23
2018-10-18T00:15:12.637Z,55.60
2018-10-18T00:17:46.257Z,53.40
2018-10-18T00:20:15.908Z,55.33
2018-10-18T00:22:45.295Z,54.48
2018-10-18T00:25:14.368Z,54.53
2018-10-18T00:27:43.028Z,55.52
2018-10-18T00:30:13.114Z,55.17
2018-10-18T00:32:43.370Z,54.40
2018-10-18T00:35:12.506Z,55.45
2018-10-18T00:37:41.182Z,54.38
2018-10-18T00:40:11.329Z,54.60
2018-10-18T00:42:39.772Z,55.50
2018-10-18T00:45:09.075Z,55.20
2018-10-18T00:47:37.765Z,55.25
2018-10-18T00:50:07.298Z,55.85
2018-10-18T00:52:36.130Z,53.87
2018-10-18T00:55:04.923Z,54.93
2018-10-18T00:57:33.937Z,53.38
2018-10-18T01:00:03.065Z,53.92
2018-10-18T01:02:31.989Z,57.00
2018-10-18T01:05:00.997Z,54.33
2018-10-18T01:07:30.060Z,53.25
2018-10-18T01:09:59.113Z,55.67
2018-10-18T01:12:28.325Z,55.48
2018-10-18T01:14:57.065Z,53.15
2018-10-18T01:17:26.090Z,56.30
2018-10-18T01:19:55.186Z,53.33
2018-10-18T01:22:24.086Z,55.20
2018-10-18T01:24:53.150Z,55.15
2018-10-18T01:27:21.860Z,55.38
2018-10-18T01:29:50.589Z,53.23
2018-10-18T01:32:19.626Z,54.38
2018-10-18T01:34:48.657Z,54.27
2018-10-18T01:37:17.744Z,55.58
2018-10-18T01:39:46.769Z,55.45
2018-10-18T01:42:15.880Z,54.90
2018-10-18T01:44:45.062Z,53.80
2018-10-18T01:47:13.787Z,55.58
2018-10-18T01:49:42.537Z,55.33
2018-10-18T01:52:11.545Z,56.98
2018-10-18T01:54:40.574Z,56.55
2018-10-18T01:57:09.602Z,55.10
2018-10-18T01:59:38.346Z,57.33
2018-10-18T02:02:07.089Z,56.60
2018-10-18T02:04:36.401Z,57.20
2018-10-18T02:07:05.273Z,56.00
2018-10-18T02:09:33.970Z,56.83
2018-10-18T02:12:02.703Z,55.83
2018-10-18T02:14:31.573Z,56.08
2018-10-18T02:17:00.597Z,55.40
2018-10-18T02:19:28.969Z,56.23
2018-10-18T02:21:58.053Z,58.63
2018-10-18T02:24:27.051Z,57.00
2018-10-18T02:26:56.070Z,58.45
2018-10-18T02:29:24.755Z,57.15
2018-10-18T02:31:53.799Z,56.85
2018-10-18T02:34:22.813Z,57.08
2018-10-18T02:36:51.877Z,54.60
2018-10-18T02:39:20.906Z,55.85
2018-10-18T02:41:49.605Z,55.30
2018-10-18T02:44:19.241Z,57.35
2018-10-18T02:46:47.921Z,57.23
2018-10-18T02:49:16.602Z,55.50
2018-10-18T02:51:45.313Z,57.13
2018-10-18T02:54:14.426Z,56.73
2018-10-18T02:56:43.576Z,56.50
2018-10-18T02:59:12.783Z,58.38
2018-10-18T03:01:41.480Z,58.00
2018-10-18T03:04:10.338Z,57.08
2018-10-18T03:06:39.455Z,59.65
2018-10-18T03:09:08.777Z,57.62
2018-10-18T03:11:37.465Z,58.17
2018-10-18T03:14:06.547Z,57.38
2018-10-18T03:16:35.218Z,55.95
2018-10-18T03:19:04.555Z,55.88
2018-10-18T03:21:33.240Z,56.60
2018-10-18T03:24:02.184Z,56.98
2018-10-18T03:26:31.090Z,58.90
2018-10-18T03:28:59.754Z,57.62
2018-10-18T03:31:28.486Z,56.90
2018-10-18T03:33:57.497Z,55.40
2018-10-18T03:36:26.530Z,58.25
2018-10-18T03:38:55.342Z,56.20
2018-10-18T03:41:24.446Z,57.83
2018-10-18T03:43:53.261Z,57.17
2018-10-18T03:46:21.942Z,57.40
2018-10-18T03:48:50.951Z,54.53
2018-10-18T03:51:19.990Z,54.50
2018-10-18T03:53:49.026Z,56.77
2018-10-18T03:56:17.939Z,315.87
2018-10-18T03:58:46.682Z,61.95
2018-10-18T04:01:15.913Z,58.02
2018-10-18T04:03:44.580Z,57.85
2018-10-18T04:06:14.119Z,57.65
2018-10-18T04:08:42.898Z,57.67
2018-10-18T04:11:11.565Z,58.87
2018-10-18T04:13:40.414Z,145.43
2018-10-18T04:16:09.440Z,59.15
2018-10-18T04:18:38.588Z,58.58
2018-10-18T04:21:07.930Z,58.65
2018-10-18T04:23:36.326Z,57.55
2018-10-18T04:26:05.373Z,59.95
2018-10-18T04:28:34.418Z,58.98
2018-10-18T04:31:03.907Z,70.92
2018-10-18T04:33:33.222Z,62.83
2018-10-18T04:36:01.805Z,59.93
2018-10-18T04:38:30.974Z,60.80
2018-10-18T04:41:00.016Z,57.35
2018-10-18T04:43:28.699Z,59.00
2018-10-18T04:45:57.762Z,58.80
2018-10-18T04:48:26.829Z,58.33
2018-10-18T04:50:55.829Z,58.35
2018-10-18T04:53:24.531Z,69.05
2018-10-18T04:55:53.548Z,61.68
2018-10-18T04:58:22.594Z,58.75
2018-10-18T05:00:51.593Z,58.13
2018-10-18T05:03:20.935Z,58.13
2018-10-18T05:05:52.217Z,71.57
2018-10-18T05:08:21.602Z,64.42
2018-10-18T05:10:50.645Z,71.50
2018-10-18T05:13:19.530Z,60.92
2018-10-18T05:15:48.253Z,58.23
2018-10-18T05:18:17.383Z,58.13
2018-10-18T05:20:47.496Z,56.65
2018-10-18T05:23:16.221Z,57.62
2018-10-18T05:25:45.276Z,58.23
2018-10-18T05:28:14.297Z,61.15
2018-10-18T05:30:43.489Z,58.05
2018-10-18T05:33:12.206Z,57.38
2018-10-18T05:35:40.893Z,64.05
2018-10-18T05:40:48.627Z,57.00
2018-10-18T05:43:17.825Z,60.10
2018-10-18T05:45:46.937Z,55.45
2018-10-18T05:48:16.000Z,60.40
2018-10-18T05:50:45.086Z,58.45
2018-10-18T05:53:13.938Z,59.05
2018-10-18T05:55:42.396Z,57.45
2018-10-18T05:58:11.077Z,60.55
2018-10-18T06:00:39.793Z,59.33
2018-10-18T06:03:08.533Z,59.60
2018-10-18T06:05:37.602Z,58.58
2018-10-18T06:08:06.257Z,62.80
2018-10-18T06:10:46.067Z,58.60
2018-10-18T06:13:15.182Z,58.00
2018-10-18T06:15:43.968Z,63.08
2018-10-18T06:18:12.360Z,60.67
2018-10-18T06:20:41.040Z,62.45
2018-10-18T06:23:09.790Z,63.13
2018-10-18T06:25:39.077Z,68.67
2018-10-18T06:28:08.108Z,70.28
2018-10-18T06:30:36.864Z,74.97
2018-10-18T06:33:05.354Z,76.55
2018-10-18T06:35:34.575Z,80.00
2018-10-18T06:38:03.241Z,78.62
2018-10-18T06:40:31.981Z,78.90
2018-10-18T06:43:00.668Z,78.80
2018-10-18T06:45:29.927Z,77.42
2018-10-18T06:47:59.119Z,76.97
2018-10-18T06:50:28.223Z,84.32
2018-10-18T06:52:56.670Z,80.32
2018-10-18T06:55:25.745Z,78.90
2018-10-18T06:57:54.739Z,73.30
2018-10-18T07:00:24.750Z,73.37
2018-10-18T07:02:53.558Z,65.28
2018-10-18T07:05:22.282Z,67.70
2018-10-18T07:07:50.669Z,61.85
2018-10-18T07:10:19.700Z,62.35
2018-10-18T07:12:48.412Z,61.35
2018-10-18T07:15:16.956Z,64.60
2018-10-18T07:17:45.713Z,59.77
2018-10-18T07:20:14.990Z,56.83
2018-10-18T07:22:43.095Z,54.83
2018-10-18T07:25:13.311Z,52.17
2018-10-18T07:27:42.352Z,52.97
2018-10-18T07:30:11.708Z,51.20
2018-10-18T07:32:40.397Z,54.47
2018-10-18T07:35:15.635Z,53.50
2018-10-18T07:37:48.533Z,55.13
2018-10-18T07:40:16.964Z,55.07
2018-10-18T07:42:45.753Z,55.80
2018-10-18T07:45:14.687Z,57.40
2018-10-18T07:47:43.756Z,55.70
2018-10-18T07:50:12.917Z,57.60
2018-10-18T07:52:41.678Z,64.90
2018-10-18T07:55:10.809Z,60.70
2018-10-18T07:57:39.473Z,59.75
2018-10-18T08:00:11.027Z,61.45
2018-10-18T08:02:40.662Z,60.63
2018-10-18T08:05:10.574Z,61.40
2018-10-18T08:07:39.253Z,61.73
2018-10-18T08:10:09.457Z,59.33
2018-10-18T08:12:38.173Z,58.27
2018-10-18T08:15:07.367Z,59.23
2018-10-18T08:17:35.790Z,58.77
2018-10-18T08:20:03.897Z,58.30
2018-10-18T08:22:32.362Z,61.17
2018-10-18T08:25:00.992Z,60.43
2018-10-18T08:27:29.957Z,61.70
2018-10-18T08:29:58.379Z,66.13
2018-10-18T08:32:26.511Z,64.50
2018-10-18T08:34:54.967Z,63.37
2018-10-18T08:37:24.147Z,65.23
2018-10-18T08:39:52.717Z,68.70
2018-10-18T08:42:21.870Z,71.00
2018-10-18T08:44:50.337Z,68.53
2018-10-18T08:47:19.152Z,64.23
2018-10-18T08:49:47.714Z,67.23
2018-10-18T08:52:16.334Z,67.73
2018-10-18T08:54:44.753Z,67.27
2018-10-18T08:57:13.598Z,63.70
2018-10-18T08:59:42.126Z,66.47
2018-10-18T09:02:10.895Z,63.40
2018-10-18T09:04:39.810Z,63.00
2018-10-18T09:07:08.645Z,62.27
2018-10-18T09:09:37.184Z,62.67
2018-10-18T09:12:05.530Z,62.47
2018-10-18T09:14:34.306Z,58.20
2018-10-18T09:17:03.113Z,66.37
2018-10-18T09:19:31.891Z,61.20
2018-10-18T09:22:00.342Z,60.57
2018-10-18T09:24:29.110Z,60.67
2018-10-18T09:26:57.525Z,65.10
2018-10-18T09:29:26.499Z,63.77
2018-10-18T09:31:54.909Z,63.90
2018-10-18T09:34:23.702Z,60.60
2018-10-18T09:36:52.484Z,58.63
2018-10-18T09:39:20.771Z,61.50
2018-10-18T09:41:49.655Z,62.43
2018-10-18T09:44:18.483Z,63.60
2018-10-18T09:46:47.499Z,64.83
2018-10-18T09:49:16.458Z,62.90
2018-10-18T09:51:45.052Z,60.10
2018-10-18T09:54:13.907Z,64.77
2018-10-18T09:56:42.774Z,63.87
2018-10-18T09:59:11.552Z,65.70
2018-10-18T10:01:45.108Z,67.50
2018-10-18T10:04:13.541Z,66.70
2018-10-18T10:06:42.495Z,63.30
2018-10-18T10:09:10.995Z,64.57
2018-10-18T10:11:39.820Z,67.70
2018-10-18T10:14:08.054Z,66.23
2018-10-18T10:16:36.934Z,63.17
2018-10-18T10:19:05.651Z,59.97
2018-10-18T10:21:34.646Z,59.03
2018-10-18T10:24:03.130Z,57.83
2018-10-18T10:26:31.878Z,58.93
2018-10-18T10:29:00.298Z,56.90
2018-10-18T10:31:29.094Z,56.77
2018-10-18T10:33:57.510Z,56.63
2018-10-18T10:36:26.270Z,61.63
2018-10-18T10:38:55.072Z,60.07
2018-10-18T10:41:23.638Z,58.87
2018-10-18T10:43:52.158Z,57.50
2018-10-18T10:46:21.194Z,56.87
2018-10-18T10:48:50.026Z,60.47
2018-10-18T10:51:18.647Z,56.87
2018-10-18T10:53:47.157Z,59.83
2018-10-18T10:56:15.368Z,58.77
2018-10-18T10:58:44.317Z,59.70
2018-10-18T11:01:18.978Z,60.13
2018-10-18T11:03:48.326Z,56.37
2018-10-18T11:06:17.335Z,57.50
2018-10-18T11:08:45.820Z,53.60
2018-10-18T11:11:15.475Z,49.93
2018-10-18T11:13:43.974Z,53.33
2018-10-18T11:16:12.455Z,52.70
2018-10-18T11:18:47.863Z,54.20
2018-10-18T11:21:17.516Z,50.67
2018-10-18T11:23:45.905Z,51.80
2018-10-18T11:26:15.193Z,51.73
2018-10-18T11:28:43.814Z,49.00
2018-10-18T11:31:12.461Z,48.53
2018-10-18T11:33:41.593Z,48.63
2018-10-18T11:36:10.399Z,45.27
2018-10-18T11:38:39.350Z,50.13
2018-10-18T11:41:08.193Z,48.40
2018-10-18T11:43:37.006Z,45.73
2018-10-18T11:46:05.601Z,47.60
2018-10-18T11:48:34.048Z,48.80
2018-10-18T11:51:02.485Z,50.37
2018-10-18T11:53:31.306Z,51.70
2018-10-18T11:56:00.659Z,42.40
2018-10-18T11:58:29.054Z,56.40
2018-10-18T12:00:58.114Z,43.20
2018-10-18T12:03:26.546Z,42.90
2018-10-18T12:05:54.679Z,45.30
2018-10-18T12:08:23.107Z,53.67
2018-10-18T12:10:51.854Z,46.37
2018-10-18T12:13:20.629Z,52.00
2018-10-18T12:15:49.472Z,41.57
2018-10-18T12:18:17.861Z,44.53
2018-10-18T12:20:46.294Z,39.17
2018-10-18T12:23:15.208Z,44.33
2018-10-18T12:25:44.164Z,43.63
2018-10-18T12:28:12.974Z,43.27
2018-10-18T12:30:41.041Z,41.10
2018-10-18T12:33:09.868Z,44.83
2018-10-18T12:35:38.154Z,40.30
2018-10-18T12:38:07.093Z,41.03
2018-10-18T12:40:36.057Z,42.80
2018-10-18T12:43:04.764Z,38.80
2018-10-18T12:45:33.270Z,38.67
2018-10-18T12:48:02.059Z,48.43
2018-10-18T12:50:30.822Z,42.53
2018-10-18T12:52:59.670Z,42.37
2018-10-18T12:55:28.790Z,41.30
2018-10-18T12:57:57.679Z,41.77
2018-10-18T13:00:26.785Z,40.97
2018-10-18T13:02:55.185Z,41.27
2018-10-18T13:05:23.601Z,41.83
2018-10-18T13:07:52.749Z,41.87
2018-10-18T13:10:21.575Z,43.37
2018-10-18T13:12:50.311Z,43.13
2018-10-18T13:15:18.741Z,40.63
2018-10-18T13:17:47.677Z,41.20
2018-10-18T13:20:16.575Z,41.10
2018-10-18T13:22:45.474Z,39.67
2018-10-18T13:25:14.036Z,39.10
2018-10-18T13:27:42.759Z,38.57
2018-10-18T13:30:12.385Z,43.43
2018-10-18T13:32:41.254Z,42.03
2018-10-18T13:35:10.566Z,63.63
2018-10-18T13:37:39.563Z,47.00
2018-10-18T13:40:08.319Z,219.07
2018-10-18T13:42:37.072Z,43.60
2018-10-18T13:45:05.969Z,43.57
2018-10-18T13:47:35.030Z,42.37
2018-10-18T13:50:03.254Z,41.77
2018-10-18T13:52:32.199Z,41.23
2018-10-18T13:55:00.647Z,41.77
2018-10-18T13:57:28.808Z,40.30
2018-10-18T14:00:23.805Z,41.27
2018-10-18T14:02:53.240Z,39.63
2018-10-18T14:05:22.368Z,41.10
2018-10-18T14:07:51.823Z,39.30
2018-10-18T14:10:20.540Z,41.97
2018-10-18T14:12:49.337Z,39.97
2018-10-18T14:15:17.491Z,37.93
2018-10-18T14:17:46.451Z,36.48
2018-10-18T14:20:15.177Z,38.23
2018-10-18T14:22:43.985Z,39.20
2018-10-18T14:25:12.347Z,36.57
2018-10-18T14:27:41.133Z,35.60
2018-10-18T14:30:10.562Z,38.00
2018-10-18T14:32:39.512Z,37.20
2018-10-18T14:35:08.860Z,36.60
2018-10-18T14:37:37.159Z,37.50
2018-10-18T14:40:06.016Z,35.73
2018-10-18T14:42:34.550Z,36.30
2018-10-18T14:45:03.348Z,36.77
2018-10-18T14:47:31.851Z,38.13
2018-10-18T14:50:00.581Z,37.73
2018-10-18T14:52:29.746Z,39.20
2018-10-18T14:54:58.199Z,36.20
2018-10-18T14:57:26.620Z,36.00
2018-10-18T14:59:55.235Z,37.90
2018-10-18T15:02:24.150Z,38.63
2018-10-18T15:04:52.732Z,36.90
2018-10-18T15:07:21.644Z,38.27
2018-10-18T15:09:50.692Z,39.20
2018-10-18T15:12:19.483Z,38.27
2018-10-18T15:14:48.344Z,39.40
2018-10-18T15:17:17.268Z,38.17
2018-10-18T15:19:46.522Z,37.70
2018-10-18T15:22:15.428Z,40.07
2018-10-18T15:24:43.683Z,39.10
2018-10-18T15:27:12.521Z,37.10
2018-10-18T15:29:41.587Z,37.60
2018-10-18T15:32:10.139Z,35.77
2018-10-18T15:34:39.046Z,37.67
2018-10-18T15:37:07.502Z,36.87
2018-10-18T15:39:36.544Z,38.37
2018-10-18T15:42:05.924Z,40.20
2018-10-18T15:44:34.752Z,37.03
2018-10-18T15:47:03.405Z,38.87
2018-10-18T15:52:17.183Z,38.30
2018-10-18T15:54:45.985Z,39.10
2018-10-18T15:57:14.927Z,37.97
2018-10-18T15:59:43.501Z,39.13
2018-10-18T16:02:12.266Z,40.87
2018-10-18T16:04:40.754Z,41.27
2018-10-18T16:07:09.594Z,41.40
2018-10-18T16:09:38.435Z,40.43
2018-10-18T16:12:06.642Z,40.40
2018-10-18T16:14:34.769Z,37.37
2018-10-18T16:17:03.627Z,40.07
2018-10-18T16:19:32.573Z,37.00
2018-10-18T16:22:01.428Z,37.10
2018-10-18T16:24:29.911Z,39.10
2018-10-18T16:26:58.168Z,38.47
2018-10-18T16:29:26.982Z,39.20
2018-10-18T16:31:58.515Z,37.93
2018-10-18T16:34:27.365Z,42.50
2018-10-18T16:36:55.882Z,36.37
2018-10-18T16:39:24.383Z,35.80
2018-10-18T16:41:52.909Z,36.00
2018-10-18T16:44:21.189Z,36.17
2018-10-18T16:46:50.347Z,39.45
2018-10-18T16:49:18.859Z,36.50
2018-10-18T16:51:47.613Z,35.28
2018-10-18T16:54:16.583Z,38.47
2018-10-18T16:56:45.428Z,38.50
2018-10-18T16:59:14.205Z,35.65
2018-10-18T17:01:42.349Z,36.57
2018-10-18T17:04:11.010Z,38.37
2018-10-18T17:06:39.343Z,36.83
2018-10-18T17:09:09.281Z,39.13
2018-10-18T17:11:38.211Z,32.90
2018-10-18T17:14:06.796Z,29.97
2018-10-18T17:16:35.796Z,29.83
2018-10-18T17:19:04.728Z,29.50
2018-10-18T17:21:33.561Z,27.13
2018-10-18T17:26:49.323Z,21.68
2018-10-18T17:29:18.446Z,20.70
2018-10-18T17:31:47.239Z,22.43
2018-10-18T17:34:16.076Z,19.02
2018-10-18T17:36:45.097Z,19.52
2018-10-18T17:39:13.903Z,21.43
2018-10-18T17:41:42.083Z,16.90
2018-10-18T17:44:11.248Z,15.03
2018-10-18T17:46:40.121Z,13.65
2018-10-18T17:49:09.170Z,13.53
2018-10-18T17:51:38.018Z,16.80
2018-10-18T17:54:06.221Z,19.50
2018-10-18T17:56:34.843Z,18.23
2018-10-18T17:59:03.246Z,19.27
2018-10-18T18:01:31.710Z,20.17
2018-10-18T18:04:00.178Z,22.40
2018-10-18T18:06:29.310Z,26.35
2018-10-18T18:11:27.384Z,22.60
2018-10-18T18:13:56.216Z,23.52
2018-10-18T18:16:25.702Z,23.45
2018-10-18T18:18:54.835Z,22.70
2018-10-18T18:21:23.039Z,24.40
2018-10-18T18:23:52.194Z,23.27
2018-10-18T18:26:20.894Z,25.00
2018-10-18T18:28:49.641Z,23.40
2018-10-18T18:31:18.053Z,22.80
2018-10-18T18:33:47.261Z,22.42
2018-10-18T18:36:15.995Z,22.02
2018-10-18T18:38:45.203Z,22.77
2018-10-18T18:41:13.934Z,20.40
2018-10-18T18:43:43.031Z,22.58
2018-10-18T18:46:11.776Z,22.48
2018-10-18T18:48:40.915Z,20.80
2018-10-18T18:51:09.728Z,20.00
2018-10-18T18:53:38.922Z,20.02
2018-10-18T18:56:07.619Z,19.98
2018-10-18T18:58:36.318Z,20.52
2018-10-18T19:01:04.803Z,22.17
2018-10-18T19:03:33.507Z,21.90
2018-10-18T19:06:02.606Z,21.95
2018-10-18T19:08:31.337Z,23.52
2018-10-18T19:11:00.016Z,24.60
2018-10-18T19:13:28.846Z,20.97
2018-10-18T19:15:57.447Z,20.25
2018-10-18T19:18:25.828Z,22.42
2018-10-18T19:20:54.985Z,20.62
2018-10-18T19:23:24.375Z,19.40
2018-10-18T19:25:53.236Z,21.90
2018-10-18T19:28:22.286Z,19.40
2018-10-18T19:30:51.762Z,21.35
2018-10-18T19:33:20.834Z,22.15
2018-10-18T19:35:49.520Z,17.15
2018-10-18T19:38:18.670Z,16.35
2018-10-18T19:40:47.880Z,15.15
2018-10-18T19:43:16.939Z,14.30
2018-10-18T19:45:46.069Z,15.15
2018-10-18T19:48:14.926Z,13.88
2018-10-18T19:50:43.688Z,15.32
2018-10-18T19:53:12.800Z,11.22
2018-10-18T19:55:41.193Z,12.25
2018-10-18T19:58:10.571Z,13.85
2018-10-18T20:00:39.389Z,12.33
2018-10-18T20:03:08.172Z,11.93
2018-10-18T20:05:37.773Z,10.50
2018-10-18T20:08:06.605Z,10.30
2018-10-18T20:10:35.979Z,9.25
2018-10-18T20:13:04.828Z,13.85
2018-10-18T20:15:33.998Z,9.65
2018-10-18T20:18:03.107Z,9.38
2018-10-18T20:20:32.453Z,7.90
2018-10-18T20:23:01.521Z,8.78
2018-10-18T20:25:30.549Z,8.90
2018-10-18T20:27:59.129Z,8.23
2018-10-18T20:30:28.193Z,7.65
2018-10-18T20:32:57.296Z,7.70
2018-10-18T20:35:26.177Z,7.67
2018-10-18T20:37:55.639Z,7.08
2018-10-18T20:40:24.423Z,7.05
2018-10-18T20:42:53.508Z,7.00
2018-10-18T20:45:29.465Z,7.53
2018-10-18T20:47:58.335Z,6.60
2018-10-18T20:50:27.418Z,6.22
2018-10-18T20:52:56.229Z,6.62
2018-10-18T20:55:25.503Z,8.78
2018-10-18T20:57:54.263Z,6.05
2018-10-18T21:00:23.303Z,6.40
2018-10-18T21:02:52.359Z,7.35
2018-10-18T21:05:20.907Z,5.40
2018-10-18T21:07:49.970Z,5.72
2018-10-18T21:10:19.093Z,7.10
2018-10-18T21:12:47.537Z,8.68
2018-10-18T21:15:16.826Z,5.17
2018-10-18T21:17:45.624Z,5.95
2018-10-18T21:20:14.493Z,4.55
2018-10-18T21:22:43.642Z,5.85
2018-10-18T21:25:12.120Z,7.53
2018-10-18T21:27:40.505Z,5.08
2018-10-18T21:30:09.403Z,5.25
2018-10-18T21:32:38.572Z,5.35
2018-10-18T21:35:07.009Z,5.60
2018-10-18T21:37:36.197Z,5.35
2018-10-18T21:40:04.680Z,4.10
2018-10-18T21:42:33.830Z,4.95
2018-10-18T21:45:03.286Z,4.42
2018-10-18T21:47:32.274Z,3.47
2018-10-18T21:50:00.997Z,3.35
2018-10-18T21:52:29.706Z,4.50
2018-10-18T21:54:58.709Z,3.67
2018-10-18T21:57:27.405Z,3.17
2018-10-18T21:59:56.490Z,4.95
2018-10-18T22:02:25.176Z,3.20
2018-10-18T22:04:54.305Z,3.67
2018-10-18T22:07:25.584Z,3.10
2018-10-18T22:09:58.118Z,2.85
2018-10-18T22:12:28.507Z,3.85
2018-10-18T22:15:07.073Z,2.27
2018-10-18T22:17:38.665Z,3.85
2018-10-18T22:20:11.322Z,2.45
2018-10-18T22:22:42.011Z,4.25
2018-10-18T22:25:11.095Z,4.10
2018-10-18T22:27:39.778Z,9.63
2018-10-18T22:30:08.562Z,3.08
2018-10-18T22:32:37.616Z,3.00
2018-10-18T22:35:06.032Z,3.22
2018-10-18T22:37:34.871Z,2.98
2018-10-18T22:40:03.535Z,3.30
2018-10-18T22:42:31.885Z,2.62
2018-10-18T22:45:00.616Z,2.00
2018-10-18T22:47:29.543Z,2.87
2018-10-18T22:49:58.324Z,2.10
2018-10-18T22:52:27.029Z,4.17
2018-10-18T22:54:56.058Z,2.33
2018-10-18T22:57:25.063Z,3.00
2018-10-18T22:59:54.128Z,2.70
2018-10-18T23:02:22.839Z,2.30
2018-10-18T23:04:51.871Z,2.20
2018-10-18T23:07:20.904Z,2.70
2018-10-18T23:09:50.226Z,1.82
2018-10-18T23:12:18.917Z,3.45
2018-10-18T23:14:47.297Z,3.00
2018-10-18T23:17:16.357Z,3.52
2018-10-18T23:19:45.199Z,2.77
2018-10-18T23:22:14.241Z,5.67
2018-10-18T23:24:42.935Z,3.35
2018-10-18T23:27:10.639Z,2.20
2018-10-18T23:29:40.249Z,2.72
2018-10-18T23:32:09.532Z,2.58
2018-10-18T23:34:38.215Z,2.52
2018-10-18T23:37:06.877Z,2.50
2018-10-18T23:39:35.565Z,1.95
2018-10-18T23:42:04.249Z,2.37
2018-10-18T23:44:32.937Z,2.05
2018-10-18T23:47:01.951Z,2.58
2018-10-18T23:49:31.576Z,3.10
2018-10-18T23:52:00.598Z,2.62
2018-10-18T23:54:29.609Z,2.25
2018-10-18T23:56:58.388Z,2.83
2018-10-18T23:59:27.209Z,2.20
